Terminal Aerodrome Forecast
Issued by NWS

Home | Current Version | Previous Version | Text Only | Print | Product List | Glossary On
Versions: 1 2 3 4 5 6 7 8 9 10 11 12 13 14 15 16 17 18 19 20 21 22 23 24 25 26 27 28 29 30 31 32 33 34 35 36 37 38 39 40 41 42 43
000
FTUS41 KRNK 271135
TAFLWB
TAF
KLWB 271135Z 2712/2812 00000KT 1SM -SN BKN004 OVC010
      TEMPO 2712/2714 4SM -SHSN SCT007 BKN020
     FM271500 30005KT 6SM -SN BR OVC018
     FM271700 32010G17KT 6SM -SN OVC025
     FM280200 30005KT P6SM BKN030=

USA.gov is the U.S. government's official web portal to all federal, state and local government web resources and services.